Time;durP1;ratioP1;P1;durP2;ratioP2;P2;SDS_P1;SDS_P2;PMS_P1;PMS_P2;Temp;Humidity;BMP_temperature;BMP_pressure;BME280_temperature;BME280_humidity;BME280_pressure;Samples;Min_cycle;Max_cycle;Signal;HPM_P1;HPM_P2
2023/10/05 00:03:46;;;;;;;464.13;202.93;;;;;;;;;;4979118;28;20192;-53
2023/10/05 00:06:23;;;;;;;457.43;195.23;;;;;;;;;;4977490;28;20236;-52
2023/10/05 00:08:50;;;;;;;458.47;195.00;;;;;;;;;;4983630;28;20501;-52
2023/10/05 00:11:23;;;;;;;457.30;191.57;;;;;;;;;;4986525;28;20327;-52
2023/10/05 00:13:59;;;;;;;449.40;190.30;;;;;;;;;;4986959;28;20228;-53
2023/10/05 00:16:36;;;;;;;467.70;207.00;;;;;;;;;;4981404;28;20228;-51
2023/10/05 00:19:03;;;;;;;510.57;231.47;;;;;;;;;;4978950;28;20217;-52
2023/10/05 00:21:35;;;;;;;494.07;215.93;;;;;;;;;;4978208;28;20185;-55
2023/10/05 00:24:02;;;;;;;500.50;216.13;;;;;;;;;;4970962;28;21791;-52
2023/10/05 00:26:29;;;;;;;495.67;211.77;;;;;;;;;;4983752;28;20219;-53
2023/10/05 00:29:18;;;;;;;534.77;239.87;;;;;;;;;;4973258;28;20227;-52
2023/10/05 00:31:44;;;;;;;464.50;198.03;;;;;;;;;;4979495;28;20221;-52
2023/10/05 00:34:21;;;;;;;624.30;299.97;;;;;;;;;;4976096;28;20294;-52
2023/10/05 00:36:55;;;;;;;439.87;184.77;;;;;;;;;;4980574;28;20203;-52
2023/10/05 00:39:21;;;;;;;464.53;203.97;;;;;;;;;;4975085;28;29270;-53
2023/10/05 00:44:30;;;;;;;520.27;230.07;;;;;;;;;;4983617;28;20213;-52
2023/10/05 00:47:00;;;;;;;455.80;193.57;;;;;;;;;;4986819;28;20217;-52
2023/10/05 00:49:29;;;;;;;472.27;205.43;;;;;;;;;;4980371;28;20280;-55
2023/10/05 00:52:17;;;;;;;498.40;217.37;;;;;;;;;;4976418;28;20641;-52
2023/10/05 00:54:52;;;;;;;476.80;210.23;;;;;;;;;;4977371;28;20230;-52
2023/10/05 00:57:25;;;;;;;491.80;216.00;;;;;;;;;;4977559;28;20239;-54
2023/10/05 01:02:38;;;;;;;558.87;261.47;;;;;;;;;;4973122;28;20216;-52
2023/10/05 01:05:25;;;;;;;446.50;184.90;;;;;;;;;;4980534;28;20290;-52
2023/10/05 01:07:56;;;;;;;472.60;201.07;;;;;;;;;;4978381;28;20303;-52
2023/10/05 01:10:40;;;;;;;446.03;192.87;;;;;;;;;;4976227;28;20217;-52
2023/10/05 01:13:22;;;;;;;468.73;201.07;;;;;;;;;;4978939;28;20195;-52
2023/10/05 01:15:52;;;;;;;438.20;181.10;;;;;;;;;;4977412;28;20240;-52
2023/10/05 01:18:18;;;;;;;413.40;173.73;;;;;;;;;;4977000;28;20266;-52
2023/10/05 01:20:45;;;;;;;454.27;187.20;;;;;;;;;;4973046;28;20216;-52
2023/10/05 01:23:11;;;;;;;458.37;190.43;;;;;;;;;;4975286;28;20574;-52
2023/10/05 01:25:37;;;;;;;510.87;218.63;;;;;;;;;;4980637;28;20768;-52
2023/10/05 01:28:04;;;;;;;441.00;183.57;;;;;;;;;;4984685;28;20425;-52
2023/10/05 01:30:30;;;;;;;498.03;216.97;;;;;;;;;;4973176;28;20189;-52
2023/10/05 01:32:56;;;;;;;435.77;183.33;;;;;;;;;;4979184;28;20224;-52
2023/10/05 01:35:23;;;;;;;430.83;182.30;;;;;;;;;;4980260;28;20788;-52
2023/10/05 01:37:52;;;;;;;468.90;196.43;;;;;;;;;;4981238;28;20693;-52
2023/10/05 01:42:47;;;;;;;521.37;227.73;;;;;;;;;;4978623;28;20227;-52
2023/10/05 01:45:16;;;;;;;478.90;206.27;;;;;;;;;;4980668;28;20591;-52
2023/10/05 01:47:45;;;;;;;466.77;198.53;;;;;;;;;;4976067;28;20566;-51
2023/10/05 01:50:22;;;;;;;422.57;180.73;;;;;;;;;;4975859;28;20224;-53
2023/10/05 01:53:01;;;;;;;457.30;192.13;;;;;;;;;;4975937;28;20271;-52
2023/10/05 01:55:28;;;;;;;465.67;202.03;;;;;;;;;;4981367;28;20224;-53
2023/10/05 01:57:54;;;;;;;483.50;207.27;;;;;;;;;;4974192;28;20239;-53
2023/10/05 02:00:22;;;;;;;502.10;227.67;;;;;;;;;;4974280;28;27617;-52
2023/10/05 02:02:48;;;;;;;444.17;183.73;;;;;;;;;;4968683;28;20213;-52
2023/10/05 02:05:14;;;;;;;443.50;183.50;;;;;;;;;;4975636;28;20571;-53
2023/10/05 02:07:40;;;;;;;469.57;205.77;;;;;;;;;;4980734;28;20708;-52
2023/10/05 02:10:10;;;;;;;453.03;191.57;;;;;;;;;;4974765;28;20771;-51
2023/10/05 02:12:36;;;;;;;482.73;208.87;;;;;;;;;;4978483;28;20197;-52
2023/10/05 02:15:06;;;;;;;453.77;184.03;;;;;;;;;;4978064;28;20224;-52
2023/10/05 02:17:32;;;;;;;476.80;210.47;;;;;;;;;;4983961;28;20734;-53
2023/10/05 02:19:58;;;;;;;523.13;230.80;;;;;;;;;;4969726;28;23169;-52
2023/10/05 02:22:24;;;;;;;528.67;238.77;;;;;;;;;;4976726;28;20971;-52
2023/10/05 02:24:52;;;;;;;478.30;211.50;;;;;;;;;;4976064;28;20693;-52
2023/10/05 02:27:18;;;;;;;477.27;202.30;;;;;;;;;;4979913;28;20691;-53
2023/10/05 02:29:46;;;;;;;543.40;241.90;;;;;;;;;;4974125;28;20217;-52
2023/10/05 02:32:21;;;;;;;469.57;198.07;;;;;;;;;;4979945;28;20267;-53
2023/10/05 02:35:18;;;;;;;509.13;224.13;;;;;;;;;;4979080;28;20701;-54
2023/10/05 02:37:40;;;;;;;454.60;190.50;;;;;;;;;;4982474;28;20335;-52
2023/10/05 02:40:09;;;;;;;455.33;190.50;;;;;;;;;;4982702;28;20209;-55
2023/10/05 02:42:35;;;;;;;552.17;252.57;;;;;;;;;;4975660;28;20173;-54
2023/10/05 02:45:06;;;;;;;448.20;188.60;;;;;;;;;;4982562;28;20208;-52
2023/10/05 02:47:32;;;;;;;475.83;200.53;;;;;;;;;;4975964;28;20263;-53
2023/10/05 02:50:05;;;;;;;443.87;186.23;;;;;;;;;;4978546;28;20731;-52
2023/10/05 02:52:34;;;;;;;506.93;226.47;;;;;;;;;;4973357;28;20361;-52
2023/10/05 02:55:00;;;;;;;467.07;195.17;;;;;;;;;;4985082;28;20216;-52
2023/10/05 02:57:26;;;;;;;457.80;191.50;;;;;;;;;;4990189;28;20247;-52
2023/10/05 02:59:52;;;;;;;468.40;204.20;;;;;;;;;;4978681;28;20209;-52
2023/10/05 03:02:18;;;;;;;504.43;222.67;;;;;;;;;;4972899;28;20225;-52
2023/10/05 03:04:45;;;;;;;518.37;233.73;;;;;;;;;;4982834;28;20303;-54
2023/10/05 03:07:15;;;;;;;437.13;189.30;;;;;;;;;;4977377;28;20213;-55
2023/10/05 03:09:42;;;;;;;458.00;200.87;;;;;;;;;;4979370;28;20215;-52
2023/10/05 03:12:08;;;;;;;476.47;201.83;;;;;;;;;;4985283;28;20212;-53
2023/10/05 03:14:34;;;;;;;493.90;211.20;;;;;;;;;;4978023;28;20583;-51
2023/10/05 03:17:07;;;;;;;437.20;182.83;;;;;;;;;;4973513;28;20674;-52
2023/10/05 03:19:36;;;;;;;502.83;212.37;;;;;;;;;;4982277;28;20613;-53
2023/10/05 03:22:05;;;;;;;436.63;185.03;;;;;;;;;;4984403;28;20188;-52
2023/10/05 03:24:33;;;;;;;494.30;217.20;;;;;;;;;;4979918;28;20178;-52
2023/10/05 03:27:03;;;;;;;453.37;190.50;;;;;;;;;;4981523;28;20217;-52
2023/10/05 03:29:29;;;;;;;459.07;188.07;;;;;;;;;;4979333;28;20560;-52
2023/10/05 03:34:33;;;;;;;488.23;208.53;;;;;;;;;;4982660;28;20236;-52
2023/10/05 03:37:04;;;;;;;466.57;196.77;;;;;;;;;;4979900;28;20197;-52
2023/10/05 03:39:35;;;;;;;478.60;204.47;;;;;;;;;;4980435;28;20777;-52
2023/10/05 03:42:01;;;;;;;458.70;189.83;;;;;;;;;;4982300;28;20383;-52
2023/10/05 03:44:27;;;;;;;459.60;189.23;;;;;;;;;;4982428;28;20325;-52
2023/10/05 03:46:53;;;;;;;416.87;173.43;;;;;;;;;;4980557;28;20205;-52
2023/10/05 03:49:21;;;;;;;462.13;197.63;;;;;;;;;;4977233;28;20474;-52
2023/10/05 03:51:50;;;;;;;505.33;218.70;;;;;;;;;;4978514;28;20207;-53
2023/10/05 03:54:17;;;;;;;415.73;171.07;;;;;;;;;;4983400;28;20216;-51
2023/10/05 03:56:44;;;;;;;517.77;229.50;;;;;;;;;;4975979;28;20240;-53
2023/10/05 03:59:11;;;;;;;444.20;185.27;;;;;;;;;;4980595;28;20251;-52
2023/10/05 04:01:36;;;;;;;484.20;211.73;;;;;;;;;;4976886;28;20257;-52
2023/10/05 04:04:08;;;;;;;490.97;215.67;;;;;;;;;;4978853;28;20271;-52
2023/10/05 04:06:34;;;;;;;506.50;217.47;;;;;;;;;;4980877;28;20185;-53
2023/10/05 04:09:00;;;;;;;461.60;192.83;;;;;;;;;;4984345;28;20240;-52
2023/10/05 04:11:27;;;;;;;480.63;201.73;;;;;;;;;;4984139;28;20224;-52
2023/10/05 04:16:26;;;;;;;412.13;169.83;;;;;;;;;;4951271;28;20305;-70
2023/10/05 04:18:53;;;;;;;404.67;166.70;;;;;;;;;;4957410;28;20181;-71
2023/10/05 04:21:20;;;;;;;450.90;185.47;;;;;;;;;;4933882;28;20201;-71
2023/10/05 04:23:49;;;;;;;442.07;182.50;;;;;;;;;;4936450;28;20207;-72
2023/10/05 04:26:16;;;;;;;427.30;174.97;;;;;;;;;;4949977;28;20321;-71
2023/10/05 04:28:51;;;;;;;438.33;177.40;;;;;;;;;;4949758;28;20221;-71
2023/10/05 04:31:21;;;;;;;419.27;170.60;;;;;;;;;;4947898;28;20229;-72
2023/10/05 04:33:47;;;;;;;432.00;178.40;;;;;;;;;;4950618;28;20182;-72
2023/10/05 04:36:16;;;;;;;416.13;169.40;;;;;;;;;;4951756;28;20227;-73
2023/10/05 04:38:43;;;;;;;462.53;195.97;;;;;;;;;;4949094;28;20588;-71
2023/10/05 04:41:12;;;;;;;441.00;184.40;;;;;;;;;;4931540;28;20252;-72
2023/10/05 04:43:38;;;;;;;476.40;200.43;;;;;;;;;;4951449;28;20565;-72
2023/10/05 04:46:09;;;;;;;429.37;178.33;;;;;;;;;;4950995;28;20265;-70
2023/10/05 04:48:35;;;;;;;465.47;196.90;;;;;;;;;;4946110;28;20186;-70
2023/10/05 04:51:05;;;;;;;414.63;170.83;;;;;;;;;;4952276;28;20225;-71
2023/10/05 04:53:32;;;;;;;406.10;167.27;;;;;;;;;;4955571;28;20206;-71
2023/10/05 04:56:00;;;;;;;426.37;177.43;;;;;;;;;;4954379;28;20225;-71
2023/10/05 04:58:53;;;;;;;439.87;179.87;;;;;;;;;;4956472;28;20214;-71
2023/10/05 05:01:28;;;;;;;433.53;181.97;;;;;;;;;;4935401;28;20313;-71
2023/10/05 05:04:13;;;;;;;397.93;165.30;;;;;;;;;;4953143;28;20907;-73
2023/10/05 05:06:41;;;;;;;437.27;191.83;;;;;;;;;;4956404;28;20198;-73
2023/10/05 05:09:12;;;;;;;425.40;176.07;;;;;;;;;;4950747;28;20229;-71
2023/10/05 05:11:38;;;;;;;419.50;181.93;;;;;;;;;;4950359;28;20206;-71
2023/10/05 05:14:06;;;;;;;401.97;166.60;;;;;;;;;;4956598;28;20214;-71
2023/10/05 05:16:32;;;;;;;416.27;175.40;;;;;;;;;;4952791;28;20248;-71
2023/10/05 05:18:58;;;;;;;420.07;186.00;;;;;;;;;;4928836;28;20614;-71
2023/10/05 05:21:24;;;;;;;452.53;189.60;;;;;;;;;;4935532;28;20257;-72
2023/10/05 05:23:50;;;;;;;419.13;172.30;;;;;;;;;;4935001;28;20276;-73
2023/10/05 05:26:16;;;;;;;448.97;185.27;;;;;;;;;;4950934;28;20707;-70
2023/10/05 05:28:43;;;;;;;468.17;212.13;;;;;;;;;;4947101;28;20238;-65
2023/10/05 05:31:16;;;;;;;397.67;169.23;;;;;;;;;;4957698;28;20616;-65
2023/10/05 05:33:44;;;;;;;418.63;196.77;;;;;;;;;;4951015;28;20210;-65
2023/10/05 05:36:11;;;;;;;418.43;195.20;;;;;;;;;;4960990;28;20702;-65
2023/10/05 05:38:38;;;;;;;407.07;168.90;;;;;;;;;;4967903;28;20263;-64
2023/10/05 05:41:11;;;;;;;410.27;172.13;;;;;;;;;;4963742;28;20214;-65
2023/10/05 05:43:39;;;;;;;441.73;207.40;;;;;;;;;;4950541;28;20222;-65
2023/10/05 05:46:09;;;;;;;428.83;176.97;;;;;;;;;;4927146;28;20762;-65
2023/10/05 05:48:36;;;;;;;471.63;195.30;;;;;;;;;;4936822;28;20296;-65
2023/10/05 05:51:10;;;;;;;387.20;158.27;;;;;;;;;;4947391;28;20312;-65
2023/10/05 05:53:37;;;;;;;405.47;170.07;;;;;;;;;;4955734;28;20252;-66
2023/10/05 05:56:03;;;;;;;422.67;176.20;;;;;;;;;;4956449;28;20220;-65
2023/10/05 05:58:29;;;;;;;429.73;198.93;;;;;;;;;;4951637;28;20585;-64
2023/10/05 06:00:57;;;;;;;421.87;176.93;;;;;;;;;;4952232;28;20214;-65
2023/10/05 06:03:24;;;;;;;409.50;169.20;;;;;;;;;;4948401;28;20171;-65
2023/10/05 06:05:50;;;;;;;425.10;174.73;;;;;;;;;;4943649;28;20249;-64
2023/10/05 06:08:16;;;;;;;423.43;175.80;;;;;;;;;;4934730;28;20219;-64
2023/10/05 06:10:46;;;;;;;418.20;224.27;;;;;;;;;;4942139;28;20244;-64
2023/10/05 06:13:12;;;;;;;418.60;174.90;;;;;;;;;;4950434;28;20843;-64
2023/10/05 06:15:38;;;;;;;478.03;201.70;;;;;;;;;;4942853;28;20199;-64
2023/10/05 06:18:04;;;;;;;417.97;173.67;;;;;;;;;;4946228;28;20727;-71
2023/10/05 06:20:31;;;;;;;436.90;181.20;;;;;;;;;;4946591;28;20315;-71
2023/10/05 06:22:58;;;;;;;427.47;175.10;;;;;;;;;;4927756;28;20218;-72
2023/10/05 06:25:25;;;;;;;461.97;190.67;;;;;;;;;;4944714;28;20230;-72
2023/10/05 06:27:51;;;;;;;443.30;180.77;;;;;;;;;;4939115;28;20719;-74
2023/10/05 06:30:17;;;;;;;421.93;170.03;;;;;;;;;;4959133;28;20206;-73
2023/10/05 06:32:43;;;;;;;474.53;196.80;;;;;;;;;;4953608;28;20206;-71
2023/10/05 06:35:11;;;;;;;424.80;174.07;;;;;;;;;;4957168;28;20242;-72
2023/10/05 06:37:38;;;;;;;434.37;179.50;;;;;;;;;;4950093;28;20234;-71
2023/10/05 06:40:14;;;;;;;482.03;202.97;;;;;;;;;;4951421;28;20209;-74
2023/10/05 06:42:41;;;;;;;442.73;185.07;;;;;;;;;;4951587;28;20261;-74
2023/10/05 06:45:07;;;;;;;415.23;170.53;;;;;;;;;;4959624;28;20222;-73
2023/10/05 06:47:37;;;;;;;417.97;170.87;;;;;;;;;;4957945;28;20218;-74
2023/10/05 06:50:10;;;;;;;431.63;175.27;;;;;;;;;;4954927;28;20232;-69
2023/10/05 06:52:39;;;;;;;445.03;182.73;;;;;;;;;;4956934;28;20244;-68
2023/10/05 06:55:11;;;;;;;425.33;177.77;;;;;;;;;;4949774;28;20289;-68
2023/10/05 06:57:37;;;;;;;430.13;180.03;;;;;;;;;;4948836;28;20273;-68
2023/10/05 07:00:17;;;;;;;436.17;178.87;;;;;;;;;;4937793;28;20261;-68
2023/10/05 07:02:46;;;;;;;442.83;185.50;;;;;;;;;;4945216;28;20218;-69
2023/10/05 07:05:12;;;;;;;468.30;198.60;;;;;;;;;;4946851;28;20221;-69
2023/10/05 07:07:38;;;;;;;490.23;211.50;;;;;;;;;;4947338;28;20652;-68
2023/10/05 07:10:06;;;;;;;468.37;201.43;;;;;;;;;;4943534;28;20256;-68
2023/10/05 07:12:32;;;;;;;480.43;207.57;;;;;;;;;;4926178;28;20276;-68
2023/10/05 07:14:58;;;;;;;438.27;186.30;;;;;;;;;;4945515;28;20222;-68
2023/10/05 07:17:26;;;;;;;435.33;181.97;;;;;;;;;;4947851;28;20305;-68
2023/10/05 07:19:52;;;;;;;462.20;193.97;;;;;;;;;;4943987;28;20531;-68
2023/10/05 07:22:19;;;;;;;477.60;206.47;;;;;;;;;;4947014;28;20226;-68
2023/10/05 07:24:44;;;;;;;470.43;200.47;;;;;;;;;;4946745;28;20553;-68
2023/10/05 07:27:10;;;;;;;438.70;183.77;;;;;;;;;;4946401;28;20218;-67
2023/10/05 07:29:36;;;;;;;592.90;276.20;;;;;;;;;;4944740;28;20924;-68
2023/10/05 07:32:06;;;;;;;468.63;202.83;;;;;;;;;;4948499;28;20211;-68
2023/10/05 07:34:32;;;;;;;451.07;192.47;;;;;;;;;;4945768;28;20226;-68
2023/10/05 07:36:57;;;;;;;456.33;200.80;;;;;;;;;;4938457;28;20210;-68
2023/10/05 07:39:24;;;;;;;458.17;201.07;;;;;;;;;;4947735;28;20175;-68
2023/10/05 07:41:50;;;;;;;440.67;187.17;;;;;;;;;;4932521;28;20218;-68
2023/10/05 07:44:17;;;;;;;413.73;177.23;;;;;;;;;;4927090;28;20228;-68
2023/10/05 07:46:43;;;;;;;443.60;189.27;;;;;;;;;;4945656;28;20214;-67
2023/10/05 07:49:09;;;;;;;491.30;210.47;;;;;;;;;;4943115;28;20190;-67
2023/10/05 07:51:36;;;;;;;478.80;202.90;;;;;;;;;;4950307;28;20182;-67
2023/10/05 07:54:03;;;;;;;435.53;185.00;;;;;;;;;;4947509;28;20218;-69
2023/10/05 07:56:32;;;;;;;428.43;183.27;;;;;;;;;;4950945;28;20219;-68
2023/10/05 07:58:58;;;;;;;454.70;193.27;;;;;;;;;;4947388;28;20700;-67
2023/10/05 08:01:25;;;;;;;467.57;201.50;;;;;;;;;;4944172;28;20264;-68
2023/10/05 08:03:52;;;;;;;445.43;189.57;;;;;;;;;;4949836;28;20226;-68
2023/10/05 08:06:18;;;;;;;447.23;190.93;;;;;;;;;;4950557;28;20221;-74
2023/10/05 08:08:44;;;;;;;483.77;210.10;;;;;;;;;;4950030;28;20233;-75
2023/10/05 08:11:15;;;;;;;441.80;196.50;;;;;;;;;;4951325;28;21301;-74
2023/10/05 08:13:41;;;;;;;522.27;243.30;;;;;;;;;;4944581;28;20225;-73
2023/10/05 08:16:08;;;;;;;431.27;192.03;;;;;;;;;;4943861;28;20217;-73
2023/10/05 08:18:34;;;;;;;478.33;212.03;;;;;;;;;;4930929;28;20197;-73
2023/10/05 08:21:00;;;;;;;486.53;210.70;;;;;;;;;;4942821;28;21763;-77
2023/10/05 08:23:28;;;;;;;431.30;179.93;;;;;;;;;;4953644;28;20206;-76
2023/10/05 08:25:57;;;;;;;447.03;187.50;;;;;;;;;;4937821;28;20210;-76
2023/10/05 08:28:24;;;;;;;431.07;185.10;;;;;;;;;;4960845;28;20233;-74
2023/10/05 08:31:05;;;;;;;439.70;186.70;;;;;;;;;;4935866;28;20214;-76
2023/10/05 08:33:34;;;;;;;453.30;192.87;;;;;;;;;;4936734;28;20230;-76
2023/10/05 08:36:00;;;;;;;457.30;192.40;;;;;;;;;;4928086;28;20237;-76
2023/10/05 08:38:27;;;;;;;428.00;183.73;;;;;;;;;;4957369;28;20221;-75
2023/10/05 08:40:53;;;;;;;457.93;198.27;;;;;;;;;;4956841;28;20214;-74
2023/10/05 08:43:20;;;;;;;456.63;198.23;;;;;;;;;;4930375;28;20269;-75
2023/10/05 08:45:47;;;;;;;476.73;204.80;;;;;;;;;;4946413;28;20810;-77
2023/10/05 08:48:35;;;;;;;431.10;182.17;;;;;;;;;;4949744;28;20210;-73
2023/10/05 08:51:12;;;;;;;446.97;189.60;;;;;;;;;;4949087;28;20222;-74
2023/10/05 08:53:44;;;;;;;437.30;264.70;;;;;;;;;;4934496;28;20751;-74
2023/10/05 08:56:15;;;;;;;447.43;193.43;;;;;;;;;;4944685;28;20246;-73
2023/10/05 08:58:42;;;;;;;474.97;200.00;;;;;;;;;;4933182;28;20353;-74
2023/10/05 09:01:24;;;;;;;437.13;191.33;;;;;;;;;;4955100;28;20210;-75
2023/10/05 09:03:53;;;;;;;474.20;206.80;;;;;;;;;;4941026;28;20312;-71
2023/10/05 09:06:26;;;;;;;501.73;214.57;;;;;;;;;;4944635;28;20797;-74
2023/10/05 09:09:08;;;;;;;464.00;201.73;;;;;;;;;;4946138;28;20222;-72
2023/10/05 09:11:35;;;;;;;441.10;188.80;;;;;;;;;;4955829;28;20649;-75
2023/10/05 09:14:17;;;;;;;475.23;206.77;;;;;;;;;;4948121;28;20222;-73
2023/10/05 09:16:45;;;;;;;473.27;200.33;;;;;;;;;;4955072;28;20235;-74
2023/10/05 09:19:18;;;;;;;482.13;208.13;;;;;;;;;;4937604;28;20222;-74
2023/10/05 09:24:25;;;;;;;443.10;195.43;;;;;;;;;;4941396;28;20332;-73
2023/10/05 09:26:52;;;;;;;491.83;220.50;;;;;;;;;;4945795;28;20214;-73
2023/10/05 09:29:21;;;;;;;445.77;199.27;;;;;;;;;;4928529;28;20225;-70
2023/10/05 09:31:51;;;;;;;516.23;222.20;;;;;;;;;;4942511;28;20222;-71
2023/10/05 09:34:41;;;;;;;484.30;212.80;;;;;;;;;;4948386;28;20218;-74
2023/10/05 09:37:07;;;;;;;450.93;201.77;;;;;;;;;;4949472;28;20308;-73
2023/10/05 09:39:49;;;;;;;481.97;213.97;;;;;;;;;;4958387;28;20208;-71
2023/10/05 09:42:16;;;;;;;427.03;187.83;;;;;;;;;;4955686;28;20317;-72
2023/10/05 09:44:52;;;;;;;451.20;201.50;;;;;;;;;;4945045;28;20756;-72
2023/10/05 09:47:20;;;;;;;424.90;189.00;;;;;;;;;;4957748;28;20364;-71
2023/10/05 09:49:47;;;;;;;437.93;195.80;;;;;;;;;;4942563;28;20226;-71
2023/10/05 09:52:13;;;;;;;512.10;233.07;;;;;;;;;;4949641;28;20766;-71
2023/10/05 09:54:40;;;;;;;487.93;225.83;;;;;;;;;;4946201;28;20193;-72
2023/10/05 09:57:10;;;;;;;426.53;189.20;;;;;;;;;;4946509;28;20547;-72
2023/10/05 09:59:37;;;;;;;473.17;207.83;;;;;;;;;;4945063;28;20242;-73
2023/10/05 10:02:04;;;;;;;484.17;212.83;;;;;;;;;;4941400;28;20229;-73
2023/10/05 10:04:37;;;;;;;497.67;220.87;;;;;;;;;;4926636;28;20297;-70
2023/10/05 10:07:15;;;;;;;491.50;226.67;;;;;;;;;;4930107;28;20191;-72
2023/10/05 10:09:42;;;;;;;444.20;195.10;;;;;;;;;;4953528;28;20210;-74
2023/10/05 10:12:11;;;;;;;445.53;199.73;;;;;;;;;;4949815;28;20234;-72
2023/10/05 10:14:41;;;;;;;470.37;208.90;;;;;;;;;;4932544;28;20233;-72
2023/10/05 10:17:24;;;;;;;491.97;223.20;;;;;;;;;;4951351;28;20226;-72
2023/10/05 10:19:55;;;;;;;450.23;206.43;;;;;;;;;;4948133;28;20225;-71
2023/10/05 10:22:28;;;;;;;473.73;217.03;;;;;;;;;;4947889;28;20226;-72
2023/10/05 10:24:56;;;;;;;470.37;214.93;;;;;;;;;;4949642;28;20350;-72
2023/10/05 10:27:27;;;;;;;439.07;198.63;;;;;;;;;;4949118;28;20269;-72
2023/10/05 10:29:56;;;;;;;488.27;224.30;;;;;;;;;;4948560;28;20299;-72
2023/10/05 10:32:31;;;;;;;511.47;238.63;;;;;;;;;;4948953;28;20221;-72
2023/10/05 10:35:09;;;;;;;509.83;232.17;;;;;;;;;;4923986;28;20222;-72
2023/10/05 10:37:39;;;;;;;483.77;220.93;;;;;;;;;;4951509;28;21090;-73
2023/10/05 10:40:25;;;;;;;479.30;220.90;;;;;;;;;;4951890;28;20266;-72
2023/10/05 10:42:54;;;;;;;457.97;208.80;;;;;;;;;;4932298;28;20241;-73
2023/10/05 10:45:28;;;;;;;501.97;231.47;;;;;;;;;;4931324;28;20182;-71
2023/10/05 10:47:54;;;;;;;481.17;215.97;;;;;;;;;;4943257;28;20242;-71
2023/10/05 10:50:29;;;;;;;437.20;201.07;;;;;;;;;;4958136;28;20378;-74
2023/10/05 10:52:55;;;;;;;444.93;204.53;;;;;;;;;;4948466;28;20209;-72
2023/10/05 10:55:21;;;;;;;466.50;213.90;;;;;;;;;;4948461;28;20216;-73
2023/10/05 10:57:48;;;;;;;464.80;214.57;;;;;;;;;;4949469;28;20226;-73
2023/10/05 11:03:09;;;;;;;458.33;210.03;;;;;;;;;;4947990;28;20221;-73
2023/10/05 11:05:51;;;;;;;468.07;218.13;;;;;;;;;;4952088;28;20688;-72
2023/10/05 11:08:20;;;;;;;452.97;201.40;;;;;;;;;;4952646;28;20244;-73
2023/10/05 11:13:43;;;;;;;461.43;213.93;;;;;;;;;;4944626;28;20276;-73
2023/10/05 11:16:09;;;;;;;452.37;213.90;;;;;;;;;;4955782;28;20243;-75
2023/10/05 11:18:41;;;;;;;467.77;211.57;;;;;;;;;;4950620;28;20708;-72
2023/10/05 11:21:13;;;;;;;501.80;228.23;;;;;;;;;;4952149;28;20234;-70
2023/10/05 11:24:06;;;;;;;462.20;211.17;;;;;;;;;;4952776;28;20709;-72
2023/10/05 11:26:56;;;;;;;431.20;193.90;;;;;;;;;;4935302;28;20215;-73
2023/10/05 11:29:28;;;;;;;458.33;206.57;;;;;;;;;;4958392;28;20230;-73
2023/10/05 11:32:01;;;;;;;486.43;221.23;;;;;;;;;;4933513;28;20656;-74
2023/10/05 11:34:28;;;;;;;504.30;228.97;;;;;;;;;;4952819;28;20937;-74
2023/10/05 11:36:58;;;;;;;456.73;202.87;;;;;;;;;;4945896;28;20211;-73
2023/10/05 11:39:27;;;;;;;446.30;198.83;;;;;;;;;;4947627;28;20710;-73
2023/10/05 11:41:58;;;;;;;444.00;196.63;;;;;;;;;;4961514;28;20222;-73
2023/10/05 11:44:24;;;;;;;447.53;200.10;;;;;;;;;;4959627;28;20294;-73
2023/10/05 11:46:53;;;;;;;447.00;201.83;;;;;;;;;;4964339;28;20248;-73
2023/10/05 11:49:20;;;;;;;449.30;202.63;;;;;;;;;;4961848;28;20252;-73
2023/10/05 11:51:56;;;;;;;439.50;200.93;;;;;;;;;;4950338;28;20182;-74
2023/10/05 11:54:24;;;;;;;451.80;210.63;;;;;;;;;;4948730;28;20298;-73
2023/10/05 11:56:50;;;;;;;447.33;205.53;;;;;;;;;;4958675;28;20222;-73
2023/10/05 11:59:26;;;;;;;449.60;201.67;;;;;;;;;;4957729;28;20745;-72
2023/10/05 12:01:52;;;;;;;431.97;242.67;;;;;;;;;;4951754;28;20225;-72
2023/10/05 12:04:19;;;;;;;454.97;199.33;;;;;;;;;;4947787;28;20253;-77
2023/10/05 12:06:45;;;;;;;451.30;203.53;;;;;;;;;;4947257;28;20884;-77
2023/10/05 12:09:27;;;;;;;444.70;202.37;;;;;;;;;;4965481;28;20226;-77
2023/10/05 12:11:54;;;;;;;430.87;193.70;;;;;;;;;;4964276;28;20214;-77
2023/10/05 12:14:20;;;;;;;420.57;189.90;;;;;;;;;;4963692;28;20214;-77
2023/10/05 12:16:46;;;;;;;434.53;192.93;;;;;;;;;;4964047;28;20717;-77
2023/10/05 12:19:16;;;;;;;484.87;215.00;;;;;;;;;;4962502;28;20232;-77
2023/10/05 12:21:43;;;;;;;432.77;193.97;;;;;;;;;;4950693;28;20190;-77
2023/10/05 12:24:11;;;;;;;460.30;204.77;;;;;;;;;;4951044;28;20269;-77
2023/10/05 12:26:39;;;;;;;443.20;195.83;;;;;;;;;;4962426;28;20218;-77
2023/10/05 12:29:05;;;;;;;440.93;205.57;;;;;;;;;;4962084;28;20245;-77
2023/10/05 12:31:33;;;;;;;425.60;192.47;;;;;;;;;;4956833;28;20558;-77
2023/10/05 12:33:59;;;;;;;453.40;203.40;;;;;;;;;;4959995;28;20200;-77
2023/10/05 12:36:25;;;;;;;445.83;190.70;;;;;;;;;;4957428;28;20206;-77
2023/10/05 12:38:51;;;;;;;478.13;219.53;;;;;;;;;;4961194;28;20208;-77
2023/10/05 12:41:17;;;;;;;442.37;196.00;;;;;;;;;;4959839;28;20217;-77
2023/10/05 12:43:43;;;;;;;441.57;196.17;;;;;;;;;;4967704;28;20209;-77
2023/10/05 12:46:13;;;;;;;435.83;191.83;;;;;;;;;;4964115;28;20193;-77
2023/10/05 12:48:39;;;;;;;432.83;191.93;;;;;;;;;;4962542;28;20273;-78
2023/10/05 12:51:06;;;;;;;428.50;194.70;;;;;;;;;;4952172;28;20253;-78
2023/10/05 12:53:32;;;;;;;461.40;211.87;;;;;;;;;;4950332;28;20224;-78
2023/10/05 12:56:00;;;;;;;442.50;200.13;;;;;;;;;;4958069;28;20206;-77
2023/10/05 12:58:26;;;;;;;445.50;199.33;;;;;;;;;;4958283;28;20218;-77
2023/10/05 13:00:52;;;;;;;443.13;198.17;;;;;;;;;;4937273;28;20198;-77
2023/10/05 13:03:18;;;;;;;451.10;196.77;;;;;;;;;;4954424;28;20188;-77
2023/10/05 13:05:45;;;;;;;466.70;206.27;;;;;;;;;;4953324;28;20236;-77
2023/10/05 13:08:11;;;;;;;473.50;215.00;;;;;;;;;;4947634;28;20676;-77
2023/10/05 13:10:38;;;;;;;460.23;201.63;;;;;;;;;;4939144;28;20226;-77
2023/10/05 13:13:17;;;;;;;456.90;203.20;;;;;;;;;;4945034;28;20212;-78
2023/10/05 13:15:43;;;;;;;448.00;202.60;;;;;;;;;;4934920;28;20233;-77
2023/10/05 13:18:17;;;;;;;447.17;195.23;;;;;;;;;;4960535;28;20308;-77
2023/10/05 13:20:44;;;;;;;479.37;214.77;;;;;;;;;;4939920;28;20213;-77
2023/10/05 13:23:11;;;;;;;462.03;199.93;;;;;;;;;;4937253;28;20684;-77
2023/10/05 13:25:40;;;;;;;471.03;211.47;;;;;;;;;;4927815;28;20259;-78
2023/10/05 13:28:11;;;;;;;508.07;235.60;;;;;;;;;;4944018;28;20642;-77
2023/10/05 13:30:46;;;;;;;437.63;189.73;;;;;;;;;;4936348;28;20656;-77
2023/10/05 13:33:22;;;;;;;474.47;211.87;;;;;;;;;;4951399;28;20672;-77
2023/10/05 13:35:50;;;;;;;452.80;197.87;;;;;;;;;;4943569;28;20221;-77
2023/10/05 13:38:18;;;;;;;445.33;192.70;;;;;;;;;;4939029;28;20596;-77
2023/10/05 13:43:29;;;;;;;431.27;186.07;;;;;;;;;;4953446;28;20221;-77
2023/10/05 13:45:56;;;;;;;441.73;196.43;;;;;;;;;;4934960;28;20190;-77
2023/10/05 13:48:22;;;;;;;494.93;215.13;;;;;;;;;;4942606;28;20182;-77
2023/10/05 13:50:51;;;;;;;474.40;207.03;;;;;;;;;;4928772;28;21673;-74
2023/10/05 13:53:17;;;;;;;485.27;217.30;;;;;;;;;;4944591;28;20317;-72
2023/10/05 13:55:43;;;;;;;467.00;202.90;;;;;;;;;;4940787;28;20217;-72
2023/10/05 13:58:14;;;;;;;450.80;198.70;;;;;;;;;;4936551;28;20310;-72
2023/10/05 14:00:43;;;;;;;363.47;164.77;;;;;;;;;;4959686;28;20281;-72
2023/10/05 14:03:09;;;;;;;356.57;157.77;;;;;;;;;;4947565;28;20218;-74
2023/10/05 14:05:35;;;;;;;371.60;169.33;;;;;;;;;;4950123;28;20221;-72
2023/10/05 14:08:02;;;;;;;361.47;164.97;;;;;;;;;;4951677;28;20218;-72
2023/10/05 14:10:29;;;;;;;362.07;164.93;;;;;;;;;;4954571;28;20230;-72
2023/10/05 14:12:55;;;;;;;378.17;171.50;;;;;;;;;;4935003;28;20279;-72
2023/10/05 14:15:22;;;;;;;350.67;154.90;;;;;;;;;;4958058;28;20225;-72
2023/10/05 14:17:49;;;;;;;364.77;164.13;;;;;;;;;;4951982;28;20209;-72
2023/10/05 14:20:16;;;;;;;396.00;174.27;;;;;;;;;;4956753;28;20313;-72
2023/10/05 14:22:44;;;;;;;358.67;156.23;;;;;;;;;;4956802;28;20218;-72
2023/10/05 14:25:17;;;;;;;366.20;162.13;;;;;;;;;;4956846;28;20230;-72
2023/10/05 14:27:44;;;;;;;347.50;149.87;;;;;;;;;;4942265;28;20225;-72
2023/10/05 14:30:14;;;;;;;348.53;151.57;;;;;;;;;;4961912;28;20901;-71